Terminal Aerodrome Forecast
Issued by NWS

Home | Current Version | Previous Version | Text Only | Print | Product List | Glossary On
Versions: 1 2 3 4 5 6 7 8 9 10 11 12 13 14 15 16 17 18
951
FTUS46 KPDT 242157 AAA
TAFYKM
TAF AMD
KYKM 242157Z 2422/2518 03011G18KT P6SM SCT090
     FM250200 32007KT P6SM FEW090
     FM250600 27006KT P6SM SKC
     FM251100 27010KT P6SM SCT080
     FM251600 31006KT P6SM SKC=

USA.gov is the U.S. government's official web portal to all federal, state and local government web resources and services.